Terminal Aerodrome Forecast
Issued by NWS Caribou, ME

Home | Current Version | Previous Version | Text Only | Print | Product List | Glossary On
Versions: 1 2 3 4 5 6 7 8 9 10 11 12 13 14 15 16 17 18 19 20 21 22 23 24 25 26 27 28 29 30 31 32
961
FTUS41 KCAR 082333
TAFBGR
TAF
KBGR 082333Z 0900/0924 27006KT P6SM BKN050
     FM091400 28010KT P6SM BKN110=

USA.gov is the U.S. government's official web portal to all federal, state and local government web resources and services.